createdAt,value
2023-10-09T00:00:09.381Z,17.77
2023-10-09T00:00:20.993Z,15.82
2023-10-09T00:00:33.154Z,16.20
2023-10-09T00:00:44.684Z,20.67
2023-10-09T00:00:56.060Z,19.65
2023-10-09T00:01:09.175Z,20.38
2023-10-09T00:01:20.544Z,14.70
2023-10-09T00:01:32.304Z,14.95
2023-10-09T00:01:45.552Z,14.73
2023-10-09T00:01:57.107Z,15.07
2023-10-09T00:02:13.070Z,15.05
2023-10-09T00:02:24.449Z,13.63
2023-10-09T00:02:35.921Z,11.98
2023-10-09T00:02:47.465Z,12.02
2023-10-09T00:02:59.020Z,11.00
2023-10-09T00:03:10.889Z,13.82
2023-10-09T00:03:22.684Z,14.77
2023-10-09T00:03:34.255Z,17.40
2023-10-09T00:03:46.416Z,14.73
2023-10-09T00:03:58.346Z,14.65
2023-10-09T00:04:09.927Z,17.73
2023-10-09T00:04:21.533Z,19.15
2023-10-09T00:04:33.067Z,17.27
2023-10-09T00:04:44.666Z,16.50
2023-10-09T00:04:56.074Z,16.75
2023-10-09T00:05:07.871Z,15.52
2023-10-09T00:05:19.279Z,14.02
2023-10-09T00:05:31.408Z,12.80
2023-10-09T00:05:42.892Z,14.65
2023-10-09T00:05:54.679Z,18.10
2023-10-09T00:06:06.441Z,18.38
2023-10-09T00:06:18.085Z,15.63
2023-10-09T00:06:29.753Z,14.55
2023-10-09T00:06:41.553Z,13.98
2023-10-09T00:06:53.174Z,15.15
2023-10-09T00:07:06.276Z,15.43
2023-10-09T00:07:18.085Z,13.75
2023-10-09T00:07:29.848Z,12.55
2023-10-09T00:07:41.264Z,13.85
2023-10-09T00:07:52.666Z,13.85
2023-10-09T00:08:04.615Z,13.82
2023-10-09T00:08:17.536Z,13.68
2023-10-09T00:08:28.978Z,12.95
2023-10-09T00:08:40.724Z,13.13
2023-10-09T00:08:52.153Z,13.00
2023-10-09T00:09:07.518Z,14.85
2023-10-09T00:09:18.996Z,17.58
2023-10-09T00:09:31.260Z,15.35
2023-10-09T00:09:42.762Z,14.10
2023-10-09T00:09:54.151Z,14.30
2023-10-09T00:10:06.036Z,19.08
2023-10-09T00:10:17.928Z,19.30
2023-10-09T00:10:29.401Z,17.90
2023-10-09T00:10:40.821Z,18.27
2023-10-09T00:10:53.236Z,18.63
2023-10-09T00:11:04.784Z,18.15
2023-10-09T00:11:16.211Z,15.95
2023-10-09T00:11:27.725Z,14.60
2023-10-09T00:11:39.175Z,14.40
2023-10-09T00:11:51.289Z,14.13
2023-10-09T00:12:02.719Z,15.32
2023-10-09T00:12:15.425Z,16.23
2023-10-09T00:12:28.522Z,14.77
2023-10-09T00:12:40.015Z,12.27
2023-10-09T00:12:51.403Z,11.95
2023-10-09T00:13:02.909Z,11.68
2023-10-09T00:13:14.424Z,13.77
2023-10-09T00:13:26.808Z,15.40
2023-10-09T00:13:38.278Z,12.95
2023-10-09T00:13:49.779Z,14.18
2023-10-09T00:14:01.192Z,15.43
2023-10-09T00:14:12.971Z,14.55
2023-10-09T00:14:29.992Z,15.05
2023-10-09T00:14:41.566Z,17.48
2023-10-09T00:14:53.467Z,17.08
2023-10-09T00:15:05.439Z,17.48
2023-10-09T00:15:17.105Z,17.70
2023-10-09T00:15:28.557Z,16.80
2023-10-09T00:15:40.019Z,15.82
2023-10-09T00:15:51.482Z,15.27
2023-10-09T00:16:06.811Z,15.95
2023-10-09T00:16:20.325Z,19.10
2023-10-09T00:16:31.803Z,17.48
2023-10-09T00:16:43.358Z,17.00
2023-10-09T00:16:54.847Z,14.35
2023-10-09T00:17:06.356Z,15.30
2023-10-09T00:17:20.978Z,16.00
2023-10-09T00:17:34.198Z,15.88
2023-10-09T00:17:45.660Z,17.17
2023-10-09T00:17:57.258Z,21.50
2023-10-09T00:18:08.882Z,22.73
2023-10-09T00:18:20.849Z,17.98
2023-10-09T00:18:32.596Z,15.10
2023-10-09T00:18:44.088Z,17.33
2023-10-09T00:18:55.552Z,18.17
2023-10-09T00:19:07.387Z,16.67
2023-10-09T00:19:18.835Z,15.05
2023-10-09T00:19:30.501Z,14.70
2023-10-09T00:19:42.288Z,16.02
2023-10-09T00:19:53.877Z,14.35
2023-10-09T00:20:09.362Z,14.90
2023-10-09T00:20:20.987Z,14.15
2023-10-09T00:20:37.334Z,16.55
2023-10-09T00:20:48.814Z,20.98
2023-10-09T00:21:00.225Z,20.20
2023-10-09T00:21:18.183Z,18.73
2023-10-09T00:21:29.688Z,15.48
2023-10-09T00:21:42.293Z,15.00
2023-10-09T00:21:53.796Z,11.63
2023-10-09T00:22:05.288Z,13.35
2023-10-09T00:22:18.150Z,13.48
2023-10-09T00:22:29.629Z,12.70
2023-10-09T00:22:41.118Z,13.18
2023-10-09T00:22:52.674Z,14.45
2023-10-09T00:23:04.123Z,16.95
2023-10-09T00:23:15.513Z,14.90
2023-10-09T00:23:27.063Z,15.40
2023-10-09T00:23:41.406Z,15.43
2023-10-09T00:23:52.844Z,16.65
2023-10-09T00:24:04.460Z,14.13
2023-10-09T00:24:16.639Z,14.20
2023-10-09T00:24:28.563Z,16.17
2023-10-09T00:24:39.982Z,16.27
2023-10-09T00:24:51.674Z,16.42
2023-10-09T00:25:03.169Z,15.98
2023-10-09T00:25:14.664Z,16.05
2023-10-09T00:25:26.338Z,18.35
2023-10-09T00:25:37.725Z,16.45
2023-10-09T00:25:50.465Z,15.45
2023-10-09T00:26:01.860Z,12.50
2023-10-09T00:26:13.270Z,15.25
2023-10-09T00:26:24.828Z,17.33
2023-10-09T00:26:36.858Z,20.40
2023-10-09T00:26:48.325Z,17.70
2023-10-09T00:26:59.791Z,16.77
2023-10-09T00:27:11.347Z,14.38
2023-10-09T00:27:22.950Z,14.32
2023-10-09T00:27:34.538Z,15.18
2023-10-09T00:27:46.574Z,16.45
2023-10-09T00:27:57.987Z,15.52
2023-10-09T00:28:09.438Z,15.85
2023-10-09T00:28:20.882Z,15.82
2023-10-09T00:28:32.306Z,15.90
2023-10-09T00:28:43.784Z,16.35
2023-10-09T00:28:55.271Z,17.38
2023-10-09T00:29:06.660Z,16.80
2023-10-09T00:29:18.204Z,16.67
2023-10-09T00:29:29.650Z,15.48
2023-10-09T00:29:41.745Z,15.32
2023-10-09T00:29:53.264Z,16.23
2023-10-09T00:30:05.291Z,16.13
2023-10-09T00:30:18.540Z,14.52
2023-10-09T00:30:30.141Z,13.02
2023-10-09T00:30:44.790Z,14.13
2023-10-09T00:30:56.661Z,18.45
2023-10-09T00:31:08.261Z,18.27
2023-10-09T00:31:20.417Z,17.30
2023-10-09T00:31:31.858Z,16.48
2023-10-09T00:31:43.454Z,17.63
2023-10-09T00:31:55.428Z,18.40
2023-10-09T00:32:07.921Z,20.23
2023-10-09T00:32:19.380Z,18.50
2023-10-09T00:32:30.828Z,16.95
2023-10-09T00:32:43.081Z,14.30
2023-10-09T00:32:54.994Z,14.63
2023-10-09T00:33:09.100Z,14.00
2023-10-09T00:33:20.745Z,12.68
2023-10-09T00:33:32.286Z,14.00
2023-10-09T00:33:44.027Z,15.48
2023-10-09T00:33:55.673Z,16.80
2023-10-09T00:34:07.204Z,18.13
2023-10-09T00:34:18.757Z,18.15
2023-10-09T00:34:30.885Z,15.35
2023-10-09T00:34:42.480Z,12.05
2023-10-09T00:34:54.511Z,13.43
2023-10-09T00:35:06.108Z,16.05
2023-10-09T00:35:18.602Z,18.05
2023-10-09T00:35:30.198Z,17.15
2023-10-09T00:35:41.892Z,16.40
2023-10-09T00:35:53.332Z,17.05
2023-10-09T00:36:05.907Z,14.85
2023-10-09T00:36:17.361Z,11.52
2023-10-09T00:36:28.891Z,10.98
2023-10-09T00:36:42.016Z,13.48
2023-10-09T00:36:55.235Z,14.55
2023-10-09T00:37:08.131Z,14.02
2023-10-09T00:37:20.131Z,15.07
2023-10-09T00:37:35.112Z,19.63
2023-10-09T00:37:46.631Z,19.48
2023-10-09T00:37:58.515Z,19.00
2023-10-09T00:38:10.210Z,18.45
2023-10-09T00:38:21.779Z,19.50
2023-10-09T00:38:37.552Z,17.02
2023-10-09T00:38:48.988Z,19.25
2023-10-09T00:39:00.456Z,18.85
2023-10-09T00:39:11.981Z,17.10
2023-10-09T00:39:23.500Z,13.90
2023-10-09T00:39:34.990Z,16.75
2023-10-09T00:39:46.887Z,17.30
2023-10-09T00:39:58.444Z,16.77
2023-10-09T00:40:10.226Z,13.82
2023-10-09T00:40:21.612Z,15.07
2023-10-09T00:40:33.186Z,16.90
2023-10-09T00:40:51.461Z,17.55
2023-10-09T00:41:02.869Z,13.93
2023-10-09T00:41:14.302Z,13.93
2023-10-09T00:41:25.795Z,13.75
2023-10-09T00:41:37.314Z,13.35
2023-10-09T00:41:49.122Z,13.30
2023-10-09T00:42:01.038Z,13.20
2023-10-09T00:42:13.033Z,14.57
2023-10-09T00:42:27.805Z,14.73
2023-10-09T00:42:39.458Z,14.98
2023-10-09T00:42:50.959Z,16.75
2023-10-09T00:43:03.354Z,18.63
2023-10-09T00:43:15.270Z,17.00
2023-10-09T00:43:26.730Z,16.60
2023-10-09T00:43:39.284Z,14.57
2023-10-09T00:43:50.798Z,13.85
2023-10-09T00:44:02.645Z,15.18
2023-10-09T00:44:14.244Z,17.13
2023-10-09T00:44:26.252Z,18.13
2023-10-09T00:44:37.679Z,19.20
2023-10-09T00:44:49.075Z,16.90
2023-10-09T00:45:00.823Z,11.50
2023-10-09T00:45:12.344Z,9.77
2023-10-09T00:45:23.970Z,11.23
2023-10-09T00:45:35.587Z,14.07
2023-10-09T00:45:48.084Z,17.08
2023-10-09T00:46:02.644Z,15.18
2023-10-09T00:46:14.160Z,14.20
2023-10-09T00:46:27.515Z,15.43
2023-10-09T00:46:39.034Z,14.23
2023-10-09T00:46:50.535Z,12.93
2023-10-09T00:47:02.011Z,12.60
2023-10-09T00:47:14.067Z,13.55
2023-10-09T00:47:25.642Z,13.85
2023-10-09T00:47:37.963Z,12.52
2023-10-09T00:47:49.941Z,14.43
2023-10-09T00:48:01.500Z,17.35
2023-10-09T00:48:14.194Z,18.13
2023-10-09T00:48:26.041Z,19.60
2023-10-09T00:48:37.823Z,17.02
2023-10-09T00:48:51.184Z,15.35
2023-10-09T00:49:03.003Z,11.80
2023-10-09T00:49:14.502Z,13.50
2023-10-09T00:49:27.593Z,13.00
2023-10-09T00:49:39.684Z,11.50
2023-10-09T00:49:53.483Z,12.95
2023-10-09T00:50:08.414Z,16.20
2023-10-09T00:50:19.849Z,15.75
2023-10-09T00:50:31.634Z,14.90
2023-10-09T00:50:43.598Z,17.77
2023-10-09T00:50:55.176Z,21.55
2023-10-09T00:51:08.072Z,23.45
2023-10-09T00:51:20.496Z,20.08
2023-10-09T00:51:32.080Z,20.23
2023-10-09T00:51:52.726Z,18.80
2023-10-09T00:52:04.427Z,16.60
2023-10-09T00:52:16.705Z,19.23
2023-10-09T00:52:33.188Z,18.88
2023-10-09T00:52:57.223Z,18.48
2023-10-09T00:53:08.825Z,13.82
2023-10-09T00:53:23.353Z,15.35
2023-10-09T00:53:34.780Z,18.95
2023-10-09T00:53:50.324Z,20.38
2023-10-09T00:54:03.810Z,18.40
2023-10-09T00:54:16.021Z,16.58
2023-10-09T00:54:27.901Z,16.77
2023-10-09T00:54:39.455Z,16.95
2023-10-09T00:54:58.943Z,18.67
2023-10-09T00:55:12.876Z,21.27
2023-10-09T00:55:24.466Z,20.23
2023-10-09T00:55:37.707Z,19.38
2023-10-09T00:55:49.065Z,18.02
2023-10-09T00:56:03.255Z,15.85
2023-10-09T00:56:15.156Z,14.13
2023-10-09T00:56:27.027Z,14.32
2023-10-09T00:56:38.559Z,16.92
2023-10-09T00:56:49.950Z,18.20
2023-10-09T00:57:01.388Z,17.10
2023-10-09T00:57:12.849Z,16.45
2023-10-09T00:57:24.401Z,14.73
2023-10-09T00:57:38.778Z,15.85
2023-10-09T00:57:52.823Z,17.20
2023-10-09T00:58:05.018Z,15.38
2023-10-09T00:58:17.463Z,16.13
2023-10-09T00:58:28.876Z,18.23
2023-10-09T00:58:40.490Z,18.25
2023-10-09T00:58:53.560Z,15.68
2023-10-09T00:59:05.229Z,15.45
2023-10-09T00:59:20.866Z,17.40
2023-10-09T00:59:34.325Z,19.70
2023-10-09T00:59:46.636Z,21.88
2023-10-09T01:00:00.824Z,19.05
2023-10-09T01:00:12.697Z,17.20
2023-10-09T01:00:24.655Z,16.33
2023-10-09T01:00:36.802Z,15.80
2023-10-09T01:00:48.293Z,15.13
2023-10-09T01:00:59.758Z,17.85
2023-10-09T01:01:11.174Z,22.65
2023-10-09T01:01:27.935Z,23.60
2023-10-09T01:01:39.438Z,17.42
2023-10-09T01:01:50.939Z,14.80
2023-10-09T01:02:02.348Z,15.77
2023-10-09T01:02:13.762Z,17.23
2023-10-09T01:02:25.184Z,16.17
2023-10-09T01:02:36.756Z,16.63
2023-10-09T01:03:01.255Z,14.98
2023-10-09T01:03:14.985Z,17.60
2023-10-09T01:03:26.546Z,17.50
2023-10-09T01:03:38.778Z,16.08
2023-10-09T01:03:50.666Z,16.63
2023-10-09T01:04:04.985Z,16.75
2023-10-09T01:04:17.180Z,18.15
2023-10-09T01:04:29.082Z,20.10
2023-10-09T01:04:43.720Z,22.17
2023-10-09T01:04:55.540Z,22.45
2023-10-09T01:05:07.196Z,19.83
2023-10-09T01:05:18.602Z,19.55
2023-10-09T01:05:30.294Z,18.88
2023-10-09T01:05:42.768Z,16.88
2023-10-09T01:06:03.002Z,16.65
2023-10-09T01:06:14.422Z,20.73
2023-10-09T01:06:25.877Z,18.83
2023-10-09T01:06:40.101Z,19.77
2023-10-09T01:06:53.587Z,17.08
2023-10-09T01:07:06.399Z,15.35
2023-10-09T01:07:17.871Z,18.80
2023-10-09T01:07:29.989Z,17.95
2023-10-09T01:07:41.449Z,23.77
2023-10-09T01:07:53.127Z,22.02
2023-10-09T01:08:05.041Z,18.48
2023-10-09T01:08:16.579Z,14.57
2023-10-09T01:08:29.982Z,14.65
2023-10-09T01:08:41.723Z,16.35
2023-10-09T01:08:53.298Z,15.73
2023-10-09T01:09:07.678Z,18.27
2023-10-09T01:09:19.118Z,19.35
2023-10-09T01:09:30.676Z,17.23
2023-10-09T01:09:43.731Z,14.82
2023-10-09T01:09:55.167Z,14.43
2023-10-09T01:10:11.904Z,15.02
2023-10-09T01:10:23.312Z,21.08
2023-10-09T01:10:46.055Z,21.23
2023-10-09T01:10:59.443Z,15.07
2023-10-09T01:11:10.933Z,15.85
2023-10-09T01:11:22.421Z,15.93
2023-10-09T01:11:33.828Z,15.23
2023-10-09T01:11:46.217Z,16.65
2023-10-09T01:11:57.692Z,20.38
2023-10-09T01:12:09.232Z,21.58
2023-10-09T01:12:20.805Z,18.20
2023-10-09T01:12:32.907Z,15.27
2023-10-09T01:12:44.437Z,14.02
2023-10-09T01:12:55.972Z,16.25
2023-10-09T01:13:07.445Z,17.00
2023-10-09T01:13:18.892Z,20.25
2023-10-09T01:13:30.725Z,18.35
2023-10-09T01:13:42.595Z,17.43
2023-10-09T01:13:54.562Z,14.38
2023-10-09T01:14:06.833Z,11.95
2023-10-09T01:14:18.251Z,13.48
2023-10-09T01:14:31.717Z,16.58
2023-10-09T01:14:46.441Z,17.63
2023-10-09T01:14:57.997Z,16.85
2023-10-09T01:15:09.887Z,18.95
2023-10-09T01:15:21.594Z,22.48
2023-10-09T01:15:35.927Z,24.15
2023-10-09T01:15:47.474Z,19.48
2023-10-09T01:15:59.089Z,17.73
2023-10-09T01:16:10.865Z,17.67
2023-10-09T01:16:24.727Z,18.17
2023-10-09T01:16:36.323Z,16.92
2023-10-09T01:16:48.151Z,18.73
2023-10-09T01:16:59.687Z,22.20
2023-10-09T01:17:11.541Z,20.65
2023-10-09T01:17:23.613Z,18.75
2023-10-09T01:17:35.686Z,17.02
2023-10-09T01:17:47.297Z,21.05
2023-10-09T01:17:58.848Z,20.10
2023-10-09T01:18:10.684Z,22.00
2023-10-09T01:18:22.419Z,18.88
2023-10-09T01:18:34.158Z,20.95
2023-10-09T01:18:47.372Z,16.83
2023-10-09T01:18:59.175Z,16.65
2023-10-09T01:19:11.008Z,14.95
2023-10-09T01:19:22.628Z,18.35
2023-10-09T01:19:34.166Z,19.25
2023-10-09T01:19:45.661Z,18.60
2023-10-09T01:20:00.090Z,16.52
2023-10-09T01:20:12.236Z,19.95
2023-10-09T01:20:24.011Z,21.92
2023-10-09T01:20:35.485Z,17.80
2023-10-09T01:20:46.955Z,15.95
2023-10-09T01:20:58.921Z,17.40
2023-10-09T01:21:11.368Z,14.35
2023-10-09T01:21:22.876Z,14.23
2023-10-09T01:21:34.340Z,12.98
2023-10-09T01:21:45.920Z,16.43
2023-10-09T01:21:57.615Z,17.77
2023-10-09T01:22:09.156Z,19.92
2023-10-09T01:22:20.582Z,20.42
2023-10-09T01:22:32.076Z,18.83
2023-10-09T01:22:44.343Z,17.13
2023-10-09T01:22:55.768Z,16.90
2023-10-09T01:23:07.188Z,18.58
2023-10-09T01:23:18.639Z,20.25
2023-10-09T01:23:30.088Z,18.38
2023-10-09T01:23:46.650Z,18.25
2023-10-09T01:23:58.552Z,18.08
2023-10-09T01:24:10.275Z,17.83
2023-10-09T01:24:22.199Z,18.05
2023-10-09T01:24:33.704Z,17.65
2023-10-09T01:24:45.294Z,19.17
2023-10-09T01:24:56.803Z,20.05
2023-10-09T01:25:08.499Z,19.77
2023-10-09T01:25:20.128Z,18.10
2023-10-09T01:25:31.622Z,18.50
2023-10-09T01:25:43.103Z,20.73
2023-10-09T01:25:54.547Z,22.52
2023-10-09T01:26:06.067Z,18.65
2023-10-09T01:26:17.448Z,20.13
2023-10-09T01:26:30.145Z,19.83
2023-10-09T01:26:43.385Z,20.08
2023-10-09T01:26:54.783Z,17.25
2023-10-09T01:27:09.386Z,21.10
2023-10-09T01:27:20.864Z,21.98
2023-10-09T01:27:32.611Z,19.77
2023-10-09T01:27:44.066Z,17.67
2023-10-09T01:27:55.557Z,21.85
2023-10-09T01:28:07.008Z,23.90
2023-10-09T01:28:18.390Z,20.90
2023-10-09T01:28:29.869Z,17.17
2023-10-09T01:28:41.311Z,16.27
2023-10-09T01:28:52.780Z,15.02
2023-10-09T01:29:04.309Z,17.27
2023-10-09T01:29:21.647Z,18.15
2023-10-09T01:29:33.072Z,20.85
2023-10-09T01:29:45.828Z,18.40
2023-10-09T01:29:57.260Z,16.20
2023-10-09T01:30:09.327Z,16.92
2023-10-09T01:30:20.757Z,16.10
2023-10-09T01:30:32.993Z,17.90
2023-10-09T01:30:44.461Z,17.55
2023-10-09T01:30:55.919Z,18.45
2023-10-09T01:31:07.391Z,16.42
2023-10-09T01:31:18.878Z,16.60
2023-10-09T01:31:30.443Z,17.10
2023-10-09T01:31:42.933Z,17.92
2023-10-09T01:31:58.079Z,20.70
2023-10-09T01:32:09.771Z,21.48
2023-10-09T01:32:21.221Z,19.38
2023-10-09T01:32:32.990Z,19.88
2023-10-09T01:32:44.480Z,20.30
2023-10-09T01:32:56.071Z,20.65
2023-10-09T01:33:07.696Z,19.88
2023-10-09T01:33:19.265Z,21.60
2023-10-09T01:33:30.824Z,22.80
2023-10-09T01:33:42.694Z,20.55
2023-10-09T01:33:54.800Z,19.05
2023-10-09T01:34:07.378Z,22.48
2023-10-09T01:34:26.209Z,19.17
2023-10-09T01:34:37.696Z,16.30
2023-10-09T01:34:49.272Z,16.75
2023-10-09T01:35:00.785Z,17.83
2023-10-09T01:35:12.330Z,17.63
2023-10-09T01:35:23.717Z,17.70
2023-10-09T01:35:35.199Z,18.23
2023-10-09T01:35:46.672Z,19.10
2023-10-09T01:35:58.103Z,18.48
2023-10-09T01:36:09.638Z,17.25
2023-10-09T01:36:21.220Z,16.13
2023-10-09T01:36:32.714Z,15.68
2023-10-09T01:36:44.195Z,17.30
2023-10-09T01:36:55.692Z,19.98
2023-10-09T01:37:10.998Z,21.08
2023-10-09T01:37:25.543Z,21.25
2023-10-09T01:37:37.048Z,21.10
2023-10-09T01:37:48.512Z,20.70
2023-10-09T01:38:00.082Z,19.88
2023-10-09T01:38:11.599Z,20.02
2023-10-09T01:38:25.756Z,18.75
2023-10-09T01:38:37.223Z,18.73
2023-10-09T01:38:48.702Z,18.83
2023-10-09T01:39:01.800Z,17.48
2023-10-09T01:39:13.291Z,19.60
2023-10-09T01:39:25.193Z,19.15
2023-10-09T01:39:36.799Z,20.75
2023-10-09T01:39:51.784Z,22.17
2023-10-09T01:40:03.447Z,20.08
2023-10-09T01:40:15.287Z,19.65
2023-10-09T01:40:26.729Z,21.20
2023-10-09T01:40:38.547Z,20.35
2023-10-09T01:40:50.057Z,18.35
2023-10-09T01:41:01.543Z,18.15
2023-10-09T01:41:13.016Z,19.88
2023-10-09T01:41:24.522Z,21.83
2023-10-09T01:41:36.050Z,22.58
2023-10-09T01:41:47.805Z,19.73
2023-10-09T01:41:59.324Z,16.88
2023-10-09T01:42:10.830Z,17.50
2023-10-09T01:42:22.481Z,18.65
2023-10-09T01:42:34.019Z,17.08
2023-10-09T01:42:48.696Z,16.08
2023-10-09T01:43:00.120Z,20.35
2023-10-09T01:43:11.525Z,21.83
2023-10-09T01:43:22.887Z,20.33
2023-10-09T01:43:34.681Z,19.27
2023-10-09T01:43:46.343Z,18.48
2023-10-09T01:43:57.745Z,21.65
2023-10-09T01:44:09.185Z,21.95
2023-10-09T01:44:20.636Z,19.85
2023-10-09T01:44:33.005Z,16.45
2023-10-09T01:44:44.837Z,17.38
2023-10-09T01:44:57.087Z,20.30
2023-10-09T01:45:09.396Z,22.45
2023-10-09T01:45:21.174Z,19.55
2023-10-09T01:45:32.780Z,18.60
2023-10-09T01:45:44.270Z,17.65
2023-10-09T01:45:55.746Z,16.83
2023-10-09T01:46:07.272Z,15.02
2023-10-09T01:46:18.836Z,16.48
2023-10-09T01:46:30.284Z,16.63
2023-10-09T01:46:41.722Z,18.40
2023-10-09T01:46:53.683Z,18.25
2023-10-09T01:47:11.416Z,19.63
2023-10-09T01:47:22.953Z,21.70
2023-10-09T01:47:34.478Z,21.10
2023-10-09T01:47:46.054Z,15.57
2023-10-09T01:47:57.502Z,18.25
2023-10-09T01:48:09.314Z,19.08
2023-10-09T01:48:21.029Z,19.77
2023-10-09T01:48:32.586Z,21.15
2023-10-09T01:48:44.318Z,22.23
2023-10-09T01:48:55.709Z,18.80
2023-10-09T01:49:07.178Z,19.25
2023-10-09T01:49:18.798Z,20.60
2023-10-09T01:49:30.295Z,19.48
2023-10-09T01:49:42.008Z,17.55
2023-10-09T01:49:53.441Z,18.67
2023-10-09T01:50:08.877Z,21.17
2023-10-09T01:50:23.674Z,22.40
2023-10-09T01:50:35.193Z,18.88
2023-10-09T01:50:46.761Z,16.63
2023-10-09T01:50:58.155Z,19.13
2023-10-09T01:51:15.374Z,18.38
2023-10-09T01:51:29.429Z,14.57
2023-10-09T01:51:40.926Z,16.92
2023-10-09T01:51:52.398Z,17.52
2023-10-09T01:52:04.601Z,16.98
2023-10-09T01:52:17.170Z,17.90
2023-10-09T01:52:28.844Z,19.50
2023-10-09T01:52:40.230Z,20.55
2023-10-09T01:52:52.247Z,18.58
2023-10-09T01:53:04.052Z,19.60
2023-10-09T01:53:15.675Z,19.97
2023-10-09T01:53:27.636Z,19.75
2023-10-09T01:53:39.156Z,18.08
2023-10-09T01:53:50.619Z,18.70
2023-10-09T01:54:02.176Z,17.85
2023-10-09T01:54:13.880Z,19.75
2023-10-09T01:54:27.444Z,22.25
2023-10-09T01:54:39.988Z,19.80
2023-10-09T01:54:54.582Z,18.95
2023-10-09T01:55:06.560Z,19.27
2023-10-09T01:55:18.297Z,21.52
2023-10-09T01:55:31.565Z,21.65
2023-10-09T01:55:43.077Z,22.20
2023-10-09T01:55:54.564Z,19.48
2023-10-09T01:56:10.599Z,17.10
2023-10-09T01:56:22.040Z,17.25
2023-10-09T01:56:33.502Z,17.58
2023-10-09T01:56:44.911Z,15.88
2023-10-09T01:56:59.174Z,18.48
2023-10-09T01:57:10.795Z,20.23
2023-10-09T01:57:22.481Z,21.60
2023-10-09T01:57:34.428Z,19.75
2023-10-09T01:57:45.904Z,16.23
2023-10-09T01:57:59.351Z,18.25
2023-10-09T01:58:11.021Z,18.30
2023-10-09T01:58:22.444Z,19.33
2023-10-09T01:58:34.286Z,18.30
2023-10-09T01:58:45.752Z,20.08
2023-10-09T01:58:57.228Z,19.02
2023-10-09T01:59:08.609Z,21.85
2023-10-09T01:59:20.044Z,19.10
2023-10-09T01:59:31.499Z,18.60
2023-10-09T01:59:45.500Z,17.38
2023-10-09T01:59:56.998Z,19.05
2023-10-09T02:00:10.163Z,20.70
2023-10-09T02:00:21.746Z,19.75
2023-10-09T02:00:33.520Z,18.35
2023-10-09T02:00:45.021Z,17.98
2023-10-09T02:00:56.603Z,19.10
2023-10-09T02:01:08.155Z,19.60
2023-10-09T02:01:19.662Z,20.95
2023-10-09T02:01:31.149Z,21.52
2023-10-09T02:01:42.709Z,21.20
2023-10-09T02:01:54.273Z,20.88
2023-10-09T02:02:06.378Z,19.48
2023-10-09T02:02:18.258Z,18.10
2023-10-09T02:02:29.779Z,16.60
2023-10-09T02:02:41.343Z,16.75
2023-10-09T02:02:53.042Z,15.68
2023-10-09T02:03:04.973Z,18.88
2023-10-09T02:03:16.833Z,18.80
2023-10-09T02:03:30.035Z,23.33
2023-10-09T02:03:42.177Z,22.25
2023-10-09T02:03:53.774Z,21.20
2023-10-09T02:04:05.385Z,14.93
2023-10-09T02:04:16.932Z,20.52
2023-10-09T02:04:28.842Z,20.00
2023-10-09T02:04:40.321Z,17.95
2023-10-09T02:04:55.718Z,19.90
2023-10-09T02:05:07.763Z,21.63
2023-10-09T02:05:19.216Z,19.60
2023-10-09T02:05:30.584Z,17.75
2023-10-09T02:05:45.095Z,17.38
2023-10-09T02:05:57.117Z,16.23
2023-10-09T02:06:08.869Z,18.95
2023-10-09T02:06:20.374Z,21.98
2023-10-09T02:06:31.930Z,20.92
2023-10-09T02:06:46.466Z,18.23
2023-10-09T02:06:57.912Z,17.25
2023-10-09T02:07:09.309Z,17.90
2023-10-09T02:07:21.671Z,19.50
2023-10-09T02:07:33.032Z,18.20
2023-10-09T02:07:44.421Z,17.48
2023-10-09T02:07:55.959Z,18.38
2023-10-09T02:08:07.443Z,20.95
2023-10-09T02:08:19.190Z,21.70
2023-10-09T02:08:30.634Z,25.00
2023-10-09T02:08:42.013Z,25.40
2023-10-09T02:08:54.827Z,23.38
2023-10-09T02:09:06.582Z,19.45
2023-10-09T02:09:18.197Z,17.27
2023-10-09T02:09:29.656Z,17.90
2023-10-09T02:09:41.116Z,20.23
2023-10-09T02:09:52.499Z,21.90
2023-10-09T02:10:04.097Z,22.92
2023-10-09T02:10:15.604Z,19.80
2023-10-09T02:10:27.283Z,18.33
2023-10-09T02:10:38.924Z,19.05
2023-10-09T02:10:50.664Z,20.52
2023-10-09T02:11:02.407Z,21.30
2023-10-09T02:11:14.048Z,21.75
2023-10-09T02:11:25.524Z,20.77
2023-10-09T02:11:36.958Z,19.17
2023-10-09T02:11:48.881Z,20.67
2023-10-09T02:12:00.272Z,21.38
2023-10-09T02:12:11.935Z,20.88
2023-10-09T02:12:23.502Z,19.80
2023-10-09T02:12:35.011Z,18.10
2023-10-09T02:12:46.506Z,18.88
2023-10-09T02:13:03.078Z,19.98
2023-10-09T02:13:15.244Z,18.67
2023-10-09T02:13:26.697Z,17.95
2023-10-09T02:13:38.204Z,18.02
2023-10-09T02:13:49.665Z,18.65
2023-10-09T02:14:01.109Z,18.67
2023-10-09T02:14:12.734Z,18.00
2023-10-09T02:14:24.355Z,16.60
2023-10-09T02:14:35.826Z,17.15
2023-10-09T02:14:47.281Z,20.45
2023-10-09T02:14:58.698Z,19.50
2023-10-09T02:15:10.890Z,20.92
2023-10-09T02:15:22.442Z,18.58
2023-10-09T02:15:41.341Z,19.95
2023-10-09T02:15:53.222Z,21.90
2023-10-09T02:16:04.885Z,23.90
2023-10-09T02:16:16.423Z,23.67
2023-10-09T02:16:30.745Z,24.52
2023-10-09T02:16:42.485Z,23.58
2023-10-09T02:16:53.931Z,23.00
2023-10-09T02:17:05.335Z,21.08
2023-10-09T02:17:16.828Z,19.73
2023-10-09T02:17:28.397Z,19.83
2023-10-09T02:17:39.937Z,19.67
2023-10-09T02:17:51.442Z,19.35
2023-10-09T02:18:03.154Z,17.65
2023-10-09T02:18:16.696Z,19.55
2023-10-09T02:18:28.392Z,18.58
2023-10-09T02:18:42.440Z,17.20
2023-10-09T02:18:54.521Z,18.73
2023-10-09T02:19:06.139Z,25.25
2023-10-09T02:19:17.532Z,25.13
2023-10-09T02:19:30.555Z,28.02
2023-10-09T02:19:44.760Z,23.05
2023-10-09T02:19:56.154Z,17.13
2023-10-09T02:20:08.061Z,19.40
2023-10-09T02:20:19.459Z,20.50
2023-10-09T02:20:30.856Z,18.65
2023-10-09T02:20:42.277Z,16.38
2023-10-09T02:21:00.255Z,18.35
2023-10-09T02:21:11.724Z,21.33
2023-10-09T02:21:23.745Z,21.50
2023-10-09T02:21:35.554Z,24.75
2023-10-09T02:21:48.791Z,24.23
2023-10-09T02:22:00.735Z,19.38
2023-10-09T02:22:12.182Z,17.60
2023-10-09T02:22:23.689Z,18.23
2023-10-09T02:22:35.137Z,18.75
2023-10-09T02:22:46.541Z,19.52
2023-10-09T02:22:58.377Z,19.83
2023-10-09T02:23:09.788Z,21.65
2023-10-09T02:23:21.254Z,20.77
2023-10-09T02:23:34.694Z,20.73
2023-10-09T02:23:46.124Z,20.27
2023-10-09T02:23:57.646Z,19.08
2023-10-09T02:24:09.215Z,20.23
2023-10-09T02:24:20.718Z,20.48
2023-10-09T02:24:32.877Z,20.65
2023-10-09T02:24:45.661Z,19.33
2023-10-09T02:24:57.121Z,18.05
2023-10-09T02:25:08.989Z,16.23
2023-10-09T02:25:20.763Z,15.90
2023-10-09T02:25:32.145Z,16.88
2023-10-09T02:25:43.679Z,18.77
2023-10-09T02:25:58.828Z,19.80
2023-10-09T02:26:11.097Z,18.70
2023-10-09T02:26:22.541Z,18.25
2023-10-09T02:26:34.276Z,19.70
2023-10-09T02:26:45.663Z,19.85
2023-10-09T02:26:57.167Z,19.60
2023-10-09T02:27:09.874Z,18.02
2023-10-09T02:27:21.561Z,17.85
2023-10-09T02:27:32.995Z,15.65
2023-10-09T02:27:44.510Z,15.85
2023-10-09T02:27:56.021Z,16.85
2023-10-09T02:28:07.416Z,16.92
2023-10-09T02:28:18.934Z,16.38
2023-10-09T02:28:30.420Z,16.52
2023-10-09T02:28:41.841Z,17.65
2023-10-09T02:28:57.116Z,18.92
2023-10-09T02:29:08.601Z,20.77
2023-10-09T02:29:20.017Z,22.45
2023-10-09T02:29:31.512Z,22.27
2023-10-09T02:29:43.022Z,22.90
2023-10-09T02:29:54.569Z,20.90
2023-10-09T02:30:06.747Z,21.25
2023-10-09T02:30:18.342Z,20.25
2023-10-09T02:30:29.897Z,19.58
2023-10-09T02:30:41.304Z,19.70
2023-10-09T02:30:52.860Z,21.23
2023-10-09T02:31:14.028Z,19.80
2023-10-09T02:31:26.924Z,19.02
2023-10-09T02:31:38.449Z,19.67
2023-10-09T02:31:49.862Z,19.23
2023-10-09T02:32:01.320Z,17.60
2023-10-09T02:32:12.702Z,17.33
2023-10-09T02:32:24.144Z,16.45
2023-10-09T02:32:35.605Z,16.90
2023-10-09T02:32:50.120Z,18.20
2023-10-09T02:33:01.694Z,15.18
2023-10-09T02:33:13.246Z,17.42
2023-10-09T02:33:24.767Z,18.33
2023-10-09T02:33:36.479Z,16.88
2023-10-09T02:33:47.915Z,15.30
2023-10-09T02:33:59.374Z,14.52
2023-10-09T02:34:11.386Z,15.20
2023-10-09T02:34:22.883Z,17.33
2023-10-09T02:34:34.297Z,19.27
2023-10-09T02:34:45.791Z,18.35
2023-10-09T02:35:03.250Z,19.08
2023-10-09T02:35:15.434Z,19.20
2023-10-09T02:35:26.818Z,17.33
2023-10-09T02:35:38.272Z,17.15
2023-10-09T02:35:49.704Z,18.73
2023-10-09T02:36:01.117Z,20.67
2023-10-09T02:36:13.496Z,20.33
2023-10-09T02:36:25.187Z,17.60
2023-10-09T02:36:36.835Z,14.52